sensor_id;sensor_type;location;lat;lon;timestamp;P1;durP1;ratioP1;P2;durP2;ratioP2
40729;SDS011;26418;50.070;8.436;2024-02-15T00:02:03;16.10;;;12.18;;
40729;SDS011;26418;50.070;8.436;2024-02-15T00:04:29;22.67;;;12.18;;
40729;SDS011;26418;50.070;8.436;2024-02-15T00:06:55;17.30;;;12.73;;
40729;SDS011;26418;50.070;8.436;2024-02-15T00:09:20;20.52;;;13.85;;
40729;SDS011;26418;50.070;8.436;2024-02-15T00:11:47;18.10;;;11.55;;
40729;SDS011;26418;50.070;8.436;2024-02-15T00:14:12;15.20;;;11.00;;
40729;SDS011;26418;50.070;8.436;2024-02-15T00:16:38;19.05;;;13.57;;
40729;SDS011;26418;50.070;8.436;2024-02-15T00:19:04;17.88;;;11.52;;
40729;SDS011;26418;50.070;8.436;2024-02-15T00:21:29;18.63;;;13.02;;
40729;SDS011;26418;50.070;8.436;2024-02-15T00:23:55;18.58;;;12.52;;
40729;SDS011;26418;50.070;8.436;2024-02-15T00:26:21;19.98;;;12.73;;
40729;SDS011;26418;50.070;8.436;2024-02-15T00:28:47;16.33;;;12.32;;
40729;SDS011;26418;50.070;8.436;2024-02-15T00:31:14;24.92;;;15.63;;
40729;SDS011;26418;50.070;8.436;2024-02-15T00:33:39;21.17;;;14.43;;
40729;SDS011;26418;50.070;8.436;2024-02-15T00:36:05;16.02;;;12.35;;
40729;SDS011;26418;50.070;8.436;2024-02-15T00:38:31;15.88;;;11.13;;
40729;SDS011;26418;50.070;8.436;2024-02-15T00:40:57;14.88;;;11.93;;
40729;SDS011;26418;50.070;8.436;2024-02-15T00:43:27;12.35;;;10.32;;
40729;SDS011;26418;50.070;8.436;2024-02-15T00:45:53;17.02;;;11.38;;
40729;SDS011;26418;50.070;8.436;2024-02-15T00:48:19;23.73;;;16.15;;
40729;SDS011;26418;50.070;8.436;2024-02-15T00:50:44;19.92;;;14.43;;
40729;SDS011;26418;50.070;8.436;2024-02-15T00:53:10;23.48;;;13.75;;
40729;SDS011;26418;50.070;8.436;2024-02-15T00:55:36;23.13;;;14.93;;
40729;SDS011;26418;50.070;8.436;2024-02-15T00:58:02;25.67;;;16.75;;
40729;SDS011;26418;50.070;8.436;2024-02-15T01:00:27;26.48;;;15.60;;
40729;SDS011;26418;50.070;8.436;2024-02-15T01:02:53;23.23;;;14.88;;
40729;SDS011;26418;50.070;8.436;2024-02-15T01:05:20;22.42;;;15.38;;
40729;SDS011;26418;50.070;8.436;2024-02-15T01:07:47;25.27;;;14.48;;
40729;SDS011;26418;50.070;8.436;2024-02-15T01:10:14;19.75;;;14.18;;
40729;SDS011;26418;50.070;8.436;2024-02-15T01:12:40;22.35;;;13.30;;
40729;SDS011;26418;50.070;8.436;2024-02-15T01:15:06;20.10;;;14.52;;
40729;SDS011;26418;50.070;8.436;2024-02-15T01:17:32;22.40;;;14.13;;
40729;SDS011;26418;50.070;8.436;2024-02-15T01:19:57;17.17;;;12.63;;
40729;SDS011;26418;50.070;8.436;2024-02-15T01:22:23;19.35;;;13.05;;
40729;SDS011;26418;50.070;8.436;2024-02-15T01:24:50;15.07;;;11.07;;
40729;SDS011;26418;50.070;8.436;2024-02-15T01:27:15;17.73;;;12.30;;
40729;SDS011;26418;50.070;8.436;2024-02-15T01:29:42;24.17;;;15.50;;
40729;SDS011;26418;50.070;8.436;2024-02-15T01:32:07;17.35;;;11.95;;
40729;SDS011;26418;50.070;8.436;2024-02-15T01:34:33;19.08;;;12.55;;
40729;SDS011;26418;50.070;8.436;2024-02-15T01:36:59;15.90;;;12.02;;
40729;SDS011;26418;50.070;8.436;2024-02-15T01:39:25;19.33;;;11.75;;
40729;SDS011;26418;50.070;8.436;2024-02-15T01:41:51;16.52;;;11.02;;
40729;SDS011;26418;50.070;8.436;2024-02-15T01:44:20;15.30;;;10.95;;
40729;SDS011;26418;50.070;8.436;2024-02-15T01:46:46;19.52;;;11.93;;
40729;SDS011;26418;50.070;8.436;2024-02-15T01:49:14;15.55;;;10.77;;
40729;SDS011;26418;50.070;8.436;2024-02-15T01:51:40;23.17;;;12.90;;
40729;SDS011;26418;50.070;8.436;2024-02-15T01:54:08;19.70;;;13.52;;
40729;SDS011;26418;50.070;8.436;2024-02-15T01:56:35;16.30;;;12.48;;
40729;SDS011;26418;50.070;8.436;2024-02-15T01:59:01;18.58;;;13.00;;
40729;SDS011;26418;50.070;8.436;2024-02-15T02:01:28;16.88;;;12.30;;
40729;SDS011;26418;50.070;8.436;2024-02-15T02:03:58;15.60;;;12.18;;
40729;SDS011;26418;50.070;8.436;2024-02-15T02:06:24;17.85;;;11.95;;
40729;SDS011;26418;50.070;8.436;2024-02-15T02:08:49;16.38;;;11.55;;
40729;SDS011;26418;50.070;8.436;2024-02-15T02:11:15;19.20;;;12.63;;
40729;SDS011;26418;50.070;8.436;2024-02-15T02:13:41;18.20;;;12.02;;
40729;SDS011;26418;50.070;8.436;2024-02-15T02:16:23;18.58;;;12.45;;
40729;SDS011;26418;50.070;8.436;2024-02-15T02:18:50;23.33;;;13.15;;
40729;SDS011;26418;50.070;8.436;2024-02-15T02:21:16;20.60;;;13.57;;
40729;SDS011;26418;50.070;8.436;2024-02-15T02:23:41;20.05;;;12.18;;
40729;SDS011;26418;50.070;8.436;2024-02-15T02:26:08;18.40;;;12.10;;
40729;SDS011;26418;50.070;8.436;2024-02-15T02:28:35;18.70;;;11.68;;
40729;SDS011;26418;50.070;8.436;2024-02-15T02:31:01;21.13;;;12.90;;
40729;SDS011;26418;50.070;8.436;2024-02-15T02:33:27;18.75;;;12.40;;
40729;SDS011;26418;50.070;8.436;2024-02-15T02:35:54;19.17;;;13.20;;
40729;SDS011;26418;50.070;8.436;2024-02-15T02:38:22;18.50;;;12.60;;
40729;SDS011;26418;50.070;8.436;2024-02-15T02:40:51;19.38;;;13.60;;
40729;SDS011;26418;50.070;8.436;2024-02-15T02:43:17;21.05;;;13.98;;
40729;SDS011;26418;50.070;8.436;2024-02-15T02:45:43;21.77;;;14.93;;
40729;SDS011;26418;50.070;8.436;2024-02-15T02:48:10;25.00;;;14.80;;
40729;SDS011;26418;50.070;8.436;2024-02-15T02:50:36;19.92;;;14.70;;
40729;SDS011;26418;50.070;8.436;2024-02-15T02:53:03;22.95;;;13.93;;
40729;SDS011;26418;50.070;8.436;2024-02-15T02:55:30;20.08;;;13.38;;
40729;SDS011;26418;50.070;8.436;2024-02-15T02:57:55;21.20;;;14.23;;
40729;SDS011;26418;50.070;8.436;2024-02-15T03:00:21;21.85;;;13.88;;
40729;SDS011;26418;50.070;8.436;2024-02-15T03:02:47;18.88;;;12.35;;
40729;SDS011;26418;50.070;8.436;2024-02-15T03:05:13;15.52;;;11.15;;
40729;SDS011;26418;50.070;8.436;2024-02-15T03:07:39;19.63;;;13.02;;
40729;SDS011;26418;50.070;8.436;2024-02-15T03:10:08;22.67;;;13.90;;
40729;SDS011;26418;50.070;8.436;2024-02-15T03:12:40;19.30;;;13.48;;
40729;SDS011;26418;50.070;8.436;2024-02-15T03:15:08;17.73;;;12.50;;
40729;SDS011;26418;50.070;8.436;2024-02-15T03:17:46;17.92;;;12.50;;
40729;SDS011;26418;50.070;8.436;2024-02-15T03:20:13;17.70;;;11.55;;
40729;SDS011;26418;50.070;8.436;2024-02-15T03:22:58;16.38;;;10.75;;
40729;SDS011;26418;50.070;8.436;2024-02-15T03:25:25;15.65;;;10.07;;
40729;SDS011;26418;50.070;8.436;2024-02-15T03:27:57;19.38;;;11.35;;
40729;SDS011;26418;50.070;8.436;2024-02-15T03:30:25;12.77;;;9.75;;
40729;SDS011;26418;50.070;8.436;2024-02-15T03:32:52;18.13;;;10.50;;
40729;SDS011;26418;50.070;8.436;2024-02-15T03:35:18;15.20;;;10.73;;
40729;SDS011;26418;50.070;8.436;2024-02-15T03:37:47;14.93;;;10.98;;
40729;SDS011;26418;50.070;8.436;2024-02-15T03:40:16;16.25;;;10.65;;
40729;SDS011;26418;50.070;8.436;2024-02-15T03:42:43;14.77;;;10.05;;
40729;SDS011;26418;50.070;8.436;2024-02-15T03:45:09;11.88;;;8.63;;
40729;SDS011;26418;50.070;8.436;2024-02-15T03:47:36;15.45;;;9.98;;
40729;SDS011;26418;50.070;8.436;2024-02-15T03:50:05;11.73;;;8.40;;
40729;SDS011;26418;50.070;8.436;2024-02-15T03:52:31;13.02;;;8.80;;
40729;SDS011;26418;50.070;8.436;2024-02-15T03:54:57;13.32;;;8.88;;
40729;SDS011;26418;50.070;8.436;2024-02-15T03:57:24;19.05;;;11.23;;
40729;SDS011;26418;50.070;8.436;2024-02-15T03:59:50;13.38;;;9.55;;
40729;SDS011;26418;50.070;8.436;2024-02-15T04:02:17;12.95;;;8.75;;
40729;SDS011;26418;50.070;8.436;2024-02-15T04:04:48;11.32;;;8.50;;
40729;SDS011;26418;50.070;8.436;2024-02-15T04:07:17;15.80;;;9.63;;
40729;SDS011;26418;50.070;8.436;2024-02-15T04:09:44;13.25;;;10.23;;
40729;SDS011;26418;50.070;8.436;2024-02-15T04:12:11;13.43;;;9.20;;
40729;SDS011;26418;50.070;8.436;2024-02-15T04:14:37;11.75;;;8.45;;
40729;SDS011;26418;50.070;8.436;2024-02-15T04:17:03;14.95;;;9.02;;
40729;SDS011;26418;50.070;8.436;2024-02-15T04:19:30;12.48;;;8.70;;
40729;SDS011;26418;50.070;8.436;2024-02-15T04:21:56;16.75;;;10.23;;
40729;SDS011;26418;50.070;8.436;2024-02-15T04:24:22;18.23;;;10.02;;
40729;SDS011;26418;50.070;8.436;2024-02-15T04:26:48;13.60;;;9.10;;
40729;SDS011;26418;50.070;8.436;2024-02-15T04:29:16;13.80;;;8.80;;
40729;SDS011;26418;50.070;8.436;2024-02-15T04:31:42;11.57;;;8.90;;
40729;SDS011;26418;50.070;8.436;2024-02-15T04:34:08;13.68;;;8.32;;
40729;SDS011;26418;50.070;8.436;2024-02-15T04:36:35;11.95;;;8.05;;
40729;SDS011;26418;50.070;8.436;2024-02-15T04:39:01;10.98;;;7.30;;
40729;SDS011;26418;50.070;8.436;2024-02-15T04:41:28;13.90;;;8.68;;
40729;SDS011;26418;50.070;8.436;2024-02-15T04:43:54;12.52;;;7.95;;
40729;SDS011;26418;50.070;8.436;2024-02-15T04:46:19;13.57;;;7.70;;
40729;SDS011;26418;50.070;8.436;2024-02-15T04:48:48;8.90;;;7.25;;
40729;SDS011;26418;50.070;8.436;2024-02-15T04:51:17;8.57;;;6.25;;
40729;SDS011;26418;50.070;8.436;2024-02-15T04:53:44;8.95;;;6.13;;
40729;SDS011;26418;50.070;8.436;2024-02-15T04:56:11;13.27;;;7.65;;
40729;SDS011;26418;50.070;8.436;2024-02-15T04:58:41;16.02;;;9.73;;
40729;SDS011;26418;50.070;8.436;2024-02-15T05:01:13;11.57;;;8.10;;
40729;SDS011;26418;50.070;8.436;2024-02-15T05:03:40;10.60;;;8.15;;
40729;SDS011;26418;50.070;8.436;2024-02-15T05:06:06;12.98;;;8.18;;
40729;SDS011;26418;50.070;8.436;2024-02-15T05:08:33;12.98;;;8.50;;
40729;SDS011;26418;50.070;8.436;2024-02-15T05:11:01;11.25;;;7.88;;
40729;SDS011;26418;50.070;8.436;2024-02-15T05:13:29;12.18;;;8.02;;
40729;SDS011;26418;50.070;8.436;2024-02-15T05:15:55;13.38;;;7.60;;
40729;SDS011;26418;50.070;8.436;2024-02-15T05:18:20;10.75;;;7.13;;
40729;SDS011;26418;50.070;8.436;2024-02-15T05:20:46;14.18;;;8.38;;
40729;SDS011;26418;50.070;8.436;2024-02-15T05:23:12;12.57;;;7.93;;
40729;SDS011;26418;50.070;8.436;2024-02-15T05:25:37;10.57;;;7.38;;
40729;SDS011;26418;50.070;8.436;2024-02-15T05:28:03;11.52;;;6.82;;
40729;SDS011;26418;50.070;8.436;2024-02-15T05:30:31;13.25;;;6.93;;
40729;SDS011;26418;50.070;8.436;2024-02-15T05:32:58;16.08;;;7.90;;
40729;SDS011;26418;50.070;8.436;2024-02-15T05:35:24;13.15;;;7.22;;
40729;SDS011;26418;50.070;8.436;2024-02-15T05:37:50;10.95;;;7.43;;
40729;SDS011;26418;50.070;8.436;2024-02-15T05:40:17;15.50;;;8.68;;
40729;SDS011;26418;50.070;8.436;2024-02-15T05:42:44;10.45;;;7.28;;
40729;SDS011;26418;50.070;8.436;2024-02-15T05:47:54;11.07;;;7.75;;
40729;SDS011;26418;50.070;8.436;2024-02-15T05:50:20;13.57;;;7.40;;
40729;SDS011;26418;50.070;8.436;2024-02-15T05:52:46;12.68;;;7.88;;
40729;SDS011;26418;50.070;8.436;2024-02-15T05:55:12;17.58;;;8.82;;
40729;SDS011;26418;50.070;8.436;2024-02-15T05:57:42;13.88;;;8.45;;
40729;SDS011;26418;50.070;8.436;2024-02-15T06:00:08;15.73;;;7.53;;
40729;SDS011;26418;50.070;8.436;2024-02-15T06:02:34;15.57;;;8.43;;
40729;SDS011;26418;50.070;8.436;2024-02-15T06:05:00;12.10;;;7.15;;
40729;SDS011;26418;50.070;8.436;2024-02-15T06:07:29;13.82;;;7.82;;
40729;SDS011;26418;50.070;8.436;2024-02-15T06:09:57;14.80;;;7.75;;
40729;SDS011;26418;50.070;8.436;2024-02-15T06:12:23;16.35;;;8.18;;
40729;SDS011;26418;50.070;8.436;2024-02-15T06:14:48;17.48;;;7.75;;
40729;SDS011;26418;50.070;8.436;2024-02-15T06:17:14;12.65;;;7.93;;
40729;SDS011;26418;50.070;8.436;2024-02-15T06:19:39;13.35;;;7.43;;
40729;SDS011;26418;50.070;8.436;2024-02-15T06:22:05;15.95;;;7.82;;
40729;SDS011;26418;50.070;8.436;2024-02-15T06:24:30;12.70;;;7.97;;
40729;SDS011;26418;50.070;8.436;2024-02-15T06:26:56;12.63;;;7.63;;
40729;SDS011;26418;50.070;8.436;2024-02-15T06:29:27;15.88;;;6.97;;
40729;SDS011;26418;50.070;8.436;2024-02-15T06:32:11;8.65;;;5.85;;
40729;SDS011;26418;50.070;8.436;2024-02-15T06:34:55;13.52;;;4.63;;
40729;SDS011;26418;50.070;8.436;2024-02-15T06:37:39;8.68;;;5.38;;
40729;SDS011;26418;50.070;8.436;2024-02-15T06:40:23;12.20;;;6.30;;
40729;SDS011;26418;50.070;8.436;2024-02-15T06:42:49;10.43;;;4.40;;
40729;SDS011;26418;50.070;8.436;2024-02-15T06:45:15;11.73;;;5.90;;
40729;SDS011;26418;50.070;8.436;2024-02-15T06:47:43;11.00;;;5.65;;
40729;SDS011;26418;50.070;8.436;2024-02-15T06:50:18;7.47;;;5.25;;
40729;SDS011;26418;50.070;8.436;2024-02-15T06:52:43;14.63;;;6.47;;
40729;SDS011;26418;50.070;8.436;2024-02-15T06:55:10;13.68;;;5.95;;
40729;SDS011;26418;50.070;8.436;2024-02-15T06:57:37;11.27;;;5.75;;
40729;SDS011;26418;50.070;8.436;2024-02-15T07:00:05;12.75;;;6.25;;
40729;SDS011;26418;50.070;8.436;2024-02-15T07:02:39;14.98;;;6.97;;
40729;SDS011;26418;50.070;8.436;2024-02-15T07:05:05;11.52;;;6.45;;
40729;SDS011;26418;50.070;8.436;2024-02-15T07:07:31;11.25;;;5.57;;
40729;SDS011;26418;50.070;8.436;2024-02-15T07:09:57;9.77;;;4.63;;
40729;SDS011;26418;50.070;8.436;2024-02-15T07:12:23;20.25;;;6.40;;
40729;SDS011;26418;50.070;8.436;2024-02-15T07:14:49;10.32;;;5.43;;
40729;SDS011;26418;50.070;8.436;2024-02-15T07:17:14;8.73;;;4.60;;
40729;SDS011;26418;50.070;8.436;2024-02-15T07:19:43;9.68;;;4.95;;
40729;SDS011;26418;50.070;8.436;2024-02-15T07:22:09;14.52;;;5.05;;
40729;SDS011;26418;50.070;8.436;2024-02-15T07:24:36;9.30;;;5.90;;
40729;SDS011;26418;50.070;8.436;2024-02-15T07:27:04;12.20;;;6.68;;
40729;SDS011;26418;50.070;8.436;2024-02-15T07:29:30;14.98;;;7.53;;
40729;SDS011;26418;50.070;8.436;2024-02-15T07:32:01;12.25;;;6.75;;
40729;SDS011;26418;50.070;8.436;2024-02-15T07:34:29;11.02;;;7.65;;
40729;SDS011;26418;50.070;8.436;2024-02-15T07:36:55;11.25;;;7.10;;
40729;SDS011;26418;50.070;8.436;2024-02-15T07:39:23;12.60;;;7.55;;
40729;SDS011;26418;50.070;8.436;2024-02-15T07:41:52;13.18;;;8.15;;
40729;SDS011;26418;50.070;8.436;2024-02-15T07:44:23;12.15;;;7.85;;
40729;SDS011;26418;50.070;8.436;2024-02-15T07:46:49;14.88;;;7.60;;
40729;SDS011;26418;50.070;8.436;2024-02-15T07:49:15;11.77;;;8.13;;
40729;SDS011;26418;50.070;8.436;2024-02-15T07:51:42;11.40;;;7.28;;
40729;SDS011;26418;50.070;8.436;2024-02-15T07:54:09;14.15;;;7.10;;
40729;SDS011;26418;50.070;8.436;2024-02-15T07:56:35;12.48;;;7.18;;
40729;SDS011;26418;50.070;8.436;2024-02-15T07:59:00;9.70;;;5.75;;
40729;SDS011;26418;50.070;8.436;2024-02-15T08:01:26;8.18;;;5.38;;
40729;SDS011;26418;50.070;8.436;2024-02-15T08:03:52;9.15;;;6.03;;
40729;SDS011;26418;50.070;8.436;2024-02-15T08:06:18;11.90;;;5.65;;
40729;SDS011;26418;50.070;8.436;2024-02-15T08:08:44;9.27;;;5.22;;
40729;SDS011;26418;50.070;8.436;2024-02-15T08:11:12;9.98;;;5.93;;
40729;SDS011;26418;50.070;8.436;2024-02-15T08:16:21;19.58;;;7.03;;
40729;SDS011;26418;50.070;8.436;2024-02-15T08:18:48;12.60;;;6.25;;
40729;SDS011;26418;50.070;8.436;2024-02-15T08:21:17;10.02;;;6.32;;
40729;SDS011;26418;50.070;8.436;2024-02-15T08:23:46;7.65;;;5.32;;
40729;SDS011;26418;50.070;8.436;2024-02-15T08:26:11;14.52;;;6.07;;
40729;SDS011;26418;50.070;8.436;2024-02-15T08:28:37;17.02;;;7.47;;
40729;SDS011;26418;50.070;8.436;2024-02-15T08:31:02;9.70;;;5.47;;
40729;SDS011;26418;50.070;8.436;2024-02-15T08:33:29;13.25;;;7.10;;
40729;SDS011;26418;50.070;8.436;2024-02-15T08:35:55;11.43;;;6.53;;
40729;SDS011;26418;50.070;8.436;2024-02-15T08:38:21;13.35;;;5.82;;
40729;SDS011;26418;50.070;8.436;2024-02-15T08:40:47;12.98;;;6.05;;
40729;SDS011;26418;50.070;8.436;2024-02-15T08:43:13;10.73;;;6.30;;
40729;SDS011;26418;50.070;8.436;2024-02-15T08:45:40;12.63;;;7.03;;
40729;SDS011;26418;50.070;8.436;2024-02-15T08:48:07;10.88;;;6.45;;
40729;SDS011;26418;50.070;8.436;2024-02-15T08:50:32;8.90;;;5.80;;
40729;SDS011;26418;50.070;8.436;2024-02-15T08:52:58;8.25;;;5.70;;
40729;SDS011;26418;50.070;8.436;2024-02-15T08:55:23;12.18;;;5.82;;
40729;SDS011;26418;50.070;8.436;2024-02-15T08:57:52;9.05;;;5.68;;
40729;SDS011;26418;50.070;8.436;2024-02-15T09:00:19;10.73;;;5.97;;
40729;SDS011;26418;50.070;8.436;2024-02-15T09:02:45;11.68;;;6.43;;
40729;SDS011;26418;50.070;8.436;2024-02-15T09:05:12;11.13;;;5.35;;
40729;SDS011;26418;50.070;8.436;2024-02-15T09:07:42;14.07;;;7.65;;
40729;SDS011;26418;50.070;8.436;2024-02-15T09:10:12;12.38;;;6.05;;
40729;SDS011;26418;50.070;8.436;2024-02-15T09:12:42;16.73;;;8.50;;
40729;SDS011;26418;50.070;8.436;2024-02-15T09:15:10;16.80;;;6.15;;
40729;SDS011;26418;50.070;8.436;2024-02-15T09:17:36;11.20;;;6.05;;
40729;SDS011;26418;50.070;8.436;2024-02-15T09:20:06;12.15;;;6.45;;
40729;SDS011;26418;50.070;8.436;2024-02-15T09:22:43;8.52;;;5.75;;
40729;SDS011;26418;50.070;8.436;2024-02-15T09:25:15;10.45;;;5.70;;
40729;SDS011;26418;50.070;8.436;2024-02-15T09:27:41;10.27;;;5.82;;
40729;SDS011;26418;50.070;8.436;2024-02-15T09:30:08;12.00;;;6.60;;
40729;SDS011;26418;50.070;8.436;2024-02-15T09:32:35;13.23;;;8.10;;
40729;SDS011;26418;50.070;8.436;2024-02-15T09:35:01;13.75;;;8.25;;
40729;SDS011;26418;50.070;8.436;2024-02-15T09:37:27;10.10;;;5.53;;
40729;SDS011;26418;50.070;8.436;2024-02-15T09:39:53;13.60;;;6.28;;
40729;SDS011;26418;50.070;8.436;2024-02-15T09:42:24;9.40;;;6.07;;
40729;SDS011;26418;50.070;8.436;2024-02-15T09:44:50;7.38;;;5.15;;
40729;SDS011;26418;50.070;8.436;2024-02-15T09:47:16;11.35;;;6.13;;
40729;SDS011;26418;50.070;8.436;2024-02-15T09:49:43;8.02;;;4.47;;
40729;SDS011;26418;50.070;8.436;2024-02-15T09:52:09;9.45;;;5.55;;
40729;SDS011;26418;50.070;8.436;2024-02-15T09:54:41;7.72;;;5.32;;
40729;SDS011;26418;50.070;8.436;2024-02-15T09:57:10;9.27;;;5.47;;
40729;SDS011;26418;50.070;8.436;2024-02-15T09:59:39;6.78;;;3.75;;
40729;SDS011;26418;50.070;8.436;2024-02-15T10:02:06;10.55;;;5.05;;
40729;SDS011;26418;50.070;8.436;2024-02-15T10:04:39;11.18;;;5.32;;
40729;SDS011;26418;50.070;8.436;2024-02-15T10:07:05;15.82;;;5.95;;
40729;SDS011;26418;50.070;8.436;2024-02-15T10:09:33;9.45;;;5.25;;
40729;SDS011;26418;50.070;8.436;2024-02-15T10:12:01;8.43;;;4.78;;
40729;SDS011;26418;50.070;8.436;2024-02-15T10:14:28;10.77;;;5.10;;
40729;SDS011;26418;50.070;8.436;2024-02-15T10:16:55;10.10;;;5.55;;
40729;SDS011;26418;50.070;8.436;2024-02-15T10:19:21;9.43;;;4.95;;
40729;SDS011;26418;50.070;8.436;2024-02-15T10:21:53;13.60;;;4.88;;
40729;SDS011;26418;50.070;8.436;2024-02-15T10:24:22;10.18;;;5.32;;
40729;SDS011;26418;50.070;8.436;2024-02-15T10:26:59;10.02;;;5.57;;
40729;SDS011;26418;50.070;8.436;2024-02-15T10:29:26;9.32;;;5.25;;
40729;SDS011;26418;50.070;8.436;2024-02-15T10:31:58;9.32;;;4.65;;
40729;SDS011;26418;50.070;8.436;2024-02-15T10:34:25;11.45;;;4.85;;
40729;SDS011;26418;50.070;8.436;2024-02-15T10:37:10;8.50;;;4.57;;
40729;SDS011;26418;50.070;8.436;2024-02-15T10:39:37;9.02;;;5.25;;
40729;SDS011;26418;50.070;8.436;2024-02-15T10:42:03;5.55;;;4.13;;
40729;SDS011;26418;50.070;8.436;2024-02-15T10:44:32;9.90;;;5.15;;
40729;SDS011;26418;50.070;8.436;2024-02-15T10:47:00;8.63;;;4.45;;
40729;SDS011;26418;50.070;8.436;2024-02-15T10:49:32;10.50;;;5.00;;
40729;SDS011;26418;50.070;8.436;2024-02-15T10:51:58;6.40;;;4.25;;
40729;SDS011;26418;50.070;8.436;2024-02-15T10:54:47;8.80;;;5.18;;
40729;SDS011;26418;50.070;8.436;2024-02-15T10:57:20;9.30;;;5.40;;
40729;SDS011;26418;50.070;8.436;2024-02-15T11:02:27;10.15;;;4.20;;
40729;SDS011;26418;50.070;8.436;2024-02-15T11:05:06;8.90;;;4.95;;
40729;SDS011;26418;50.070;8.436;2024-02-15T11:07:39;7.00;;;4.80;;
40729;SDS011;26418;50.070;8.436;2024-02-15T11:10:08;14.32;;;7.78;;
40729;SDS011;26418;50.070;8.436;2024-02-15T11:12:36;9.32;;;5.57;;
40729;SDS011;26418;50.070;8.436;2024-02-15T11:15:03;7.55;;;4.80;;
40729;SDS011;26418;50.070;8.436;2024-02-15T11:20:08;8.75;;;5.00;;
40729;SDS011;26418;50.070;8.436;2024-02-15T11:22:37;8.20;;;4.45;;
40729;SDS011;26418;50.070;8.436;2024-02-15T11:25:04;10.95;;;5.05;;
40729;SDS011;26418;50.070;8.436;2024-02-15T11:27:37;6.80;;;4.70;;
40729;SDS011;26418;50.070;8.436;2024-02-15T11:30:05;9.00;;;4.38;;
40729;SDS011;26418;50.070;8.436;2024-02-15T11:32:46;9.07;;;4.80;;
40729;SDS011;26418;50.070;8.436;2024-02-15T11:40:16;6.18;;;3.78;;
40729;SDS011;26418;50.070;8.436;2024-02-15T11:42:55;7.25;;;4.85;;
40729;SDS011;26418;50.070;8.436;2024-02-15T11:45:23;7.22;;;4.20;;
40729;SDS011;26418;50.070;8.436;2024-02-15T11:47:51;7.80;;;4.38;;
40729;SDS011;26418;50.070;8.436;2024-02-15T11:50:19;8.75;;;3.97;;
40729;SDS011;26418;50.070;8.436;2024-02-15T11:52:49;5.47;;;2.95;;
40729;SDS011;26418;50.070;8.436;2024-02-15T11:55:19;7.32;;;4.07;;
40729;SDS011;26418;50.070;8.436;2024-02-15T11:57:58;11.05;;;3.33;;
40729;SDS011;26418;50.070;8.436;2024-02-15T12:00:42;4.18;;;2.80;;
40729;SDS011;26418;50.070;8.436;2024-02-15T12:03:26;5.35;;;3.00;;
40729;SDS011;26418;50.070;8.436;2024-02-15T12:06:10;6.40;;;3.00;;
40729;SDS011;26418;50.070;8.436;2024-02-15T12:08:54;6.07;;;2.88;;
40729;SDS011;26418;50.070;8.436;2024-02-15T12:11:38;5.93;;;2.90;;
40729;SDS011;26418;50.070;8.436;2024-02-15T12:14:23;7.65;;;3.13;;
40729;SDS011;26418;50.070;8.436;2024-02-15T12:17:08;6.85;;;2.78;;
40729;SDS011;26418;50.070;8.436;2024-02-15T12:19:57;5.88;;;2.63;;
40729;SDS011;26418;50.070;8.436;2024-02-15T12:22:26;5.80;;;2.15;;
40729;SDS011;26418;50.070;8.436;2024-02-15T12:24:59;7.25;;;2.92;;
40729;SDS011;26418;50.070;8.436;2024-02-15T12:27:26;6.65;;;3.03;;
40729;SDS011;26418;50.070;8.436;2024-02-15T12:29:58;4.43;;;2.05;;
40729;SDS011;26418;50.070;8.436;2024-02-15T12:32:25;9.63;;;3.00;;
40729;SDS011;26418;50.070;8.436;2024-02-15T12:35:09;6.88;;;3.03;;
40729;SDS011;26418;50.070;8.436;2024-02-15T12:37:44;6.03;;;2.25;;
40729;SDS011;26418;50.070;8.436;2024-02-15T12:40:11;3.95;;;2.20;;
40729;SDS011;26418;50.070;8.436;2024-02-15T12:42:41;5.43;;;2.17;;
40729;SDS011;26418;50.070;8.436;2024-02-15T12:45:14;4.32;;;1.92;;
40729;SDS011;26418;50.070;8.436;2024-02-15T12:47:52;7.50;;;2.85;;
40729;SDS011;26418;50.070;8.436;2024-02-15T12:50:22;3.78;;;1.92;;
40729;SDS011;26418;50.070;8.436;2024-02-15T12:52:49;7.30;;;2.40;;
40729;SDS011;26418;50.070;8.436;2024-02-15T12:55:19;3.85;;;2.25;;
40729;SDS011;26418;50.070;8.436;2024-02-15T12:57:49;7.57;;;2.60;;
40729;SDS011;26418;50.070;8.436;2024-02-15T13:00:20;4.80;;;1.98;;
40729;SDS011;26418;50.070;8.436;2024-02-15T13:02:47;6.43;;;2.47;;
40729;SDS011;26418;50.070;8.436;2024-02-15T13:05:16;8.82;;;2.05;;
40729;SDS011;26418;50.070;8.436;2024-02-15T13:07:44;3.50;;;1.67;;
40729;SDS011;26418;50.070;8.436;2024-02-15T13:10:11;3.22;;;1.88;;
40729;SDS011;26418;50.070;8.436;2024-02-15T13:12:39;2.78;;;1.77;;
40729;SDS011;26418;50.070;8.436;2024-02-15T13:15:06;6.05;;;2.30;;
40729;SDS011;26418;50.070;8.436;2024-02-15T13:17:37;5.25;;;2.00;;
40729;SDS011;26418;50.070;8.436;2024-02-15T13:20:03;4.40;;;2.28;;
40729;SDS011;26418;50.070;8.436;2024-02-15T13:22:36;7.43;;;2.50;;
40729;SDS011;26418;50.070;8.436;2024-02-15T13:25:04;3.33;;;2.00;;
40729;SDS011;26418;50.070;8.436;2024-02-15T13:27:32;5.47;;;2.38;;
40729;SDS011;26418;50.070;8.436;2024-02-15T13:29:58;4.35;;;1.70;;
40729;SDS011;26418;50.070;8.436;2024-02-15T13:32:24;4.05;;;2.17;;
40729;SDS011;26418;50.070;8.436;2024-02-15T13:34:50;4.22;;;1.90;;
40729;SDS011;26418;50.070;8.436;2024-02-15T13:37:17;4.05;;;2.13;;
40729;SDS011;26418;50.070;8.436;2024-02-15T13:39:45;6.68;;;1.92;;
40729;SDS011;26418;50.070;8.436;2024-02-15T13:42:11;4.15;;;1.83;;
40729;SDS011;26418;50.070;8.436;2024-02-15T13:44:37;5.20;;;1.88;;
40729;SDS011;26418;50.070;8.436;2024-02-15T13:47:03;5.63;;;2.17;;
40729;SDS011;26418;50.070;8.436;2024-02-15T13:49:28;3.75;;;1.92;;
40729;SDS011;26418;50.070;8.436;2024-02-15T13:51:56;5.03;;;1.50;;
40729;SDS011;26418;50.070;8.436;2024-02-15T13:54:27;5.00;;;1.90;;
40729;SDS011;26418;50.070;8.436;2024-02-15T13:56:54;3.92;;;1.95;;
40729;SDS011;26418;50.070;8.436;2024-02-15T13:59:20;12.68;;;3.80;;
40729;SDS011;26418;50.070;8.436;2024-02-15T14:01:46;6.10;;;2.42;;
40729;SDS011;26418;50.070;8.436;2024-02-15T14:04:14;5.80;;;2.28;;
40729;SDS011;26418;50.070;8.436;2024-02-15T14:06:41;7.50;;;2.63;;
40729;SDS011;26418;50.070;8.436;2024-02-15T14:09:09;6.60;;;2.13;;
40729;SDS011;26418;50.070;8.436;2024-02-15T14:11:38;5.05;;;1.75;;
40729;SDS011;26418;50.070;8.436;2024-02-15T14:14:04;4.47;;;2.25;;
40729;SDS011;26418;50.070;8.436;2024-02-15T14:16:30;4.93;;;1.80;;
40729;SDS011;26418;50.070;8.436;2024-02-15T14:18:56;3.80;;;1.60;;
40729;SDS011;26418;50.070;8.436;2024-02-15T14:21:22;4.95;;;2.33;;
40729;SDS011;26418;50.070;8.436;2024-02-15T14:23:48;4.93;;;1.70;;
40729;SDS011;26418;50.070;8.436;2024-02-15T14:26:14;3.20;;;2.08;;
40729;SDS011;26418;50.070;8.436;2024-02-15T14:28:42;6.30;;;2.25;;
40729;SDS011;26418;50.070;8.436;2024-02-15T14:31:10;6.55;;;2.50;;
40729;SDS011;26418;50.070;8.436;2024-02-15T14:33:54;3.40;;;1.73;;
40729;SDS011;26418;50.070;8.436;2024-02-15T14:36:19;5.90;;;2.00;;
40729;SDS011;26418;50.070;8.436;2024-02-15T14:38:45;3.78;;;2.30;;
40729;SDS011;26418;50.070;8.436;2024-02-15T14:41:11;6.28;;;3.53;;
40729;SDS011;26418;50.070;8.436;2024-02-15T14:43:37;8.07;;;3.47;;
40729;SDS011;26418;50.070;8.436;2024-02-15T14:46:03;9.73;;;4.50;;
40729;SDS011;26418;50.070;8.436;2024-02-15T14:48:33;5.97;;;2.40;;
40729;SDS011;26418;50.070;8.436;2024-02-15T14:50:59;5.03;;;2.25;;
40729;SDS011;26418;50.070;8.436;2024-02-15T14:53:26;4.70;;;1.73;;
40729;SDS011;26418;50.070;8.436;2024-02-15T14:55:54;4.13;;;1.65;;
40729;SDS011;26418;50.070;8.436;2024-02-15T14:58:22;6.43;;;1.95;;